Terminal Aerodrome Forecast
Issued by NWS

Home | Current Version | Previous Version | Graphics & Text | Print | Product List | Glossary On
Versions: 1 2 3 4 5 6 7 8 9 10 11 12 13 14 15 16 17 18 19 20 21 22 23 24 25
421
FTUS43 KICT 262059 AAA
TAFRSL
TAF AMD
KRSL 262059Z 2621/2718 04010KT P6SM VCTS SCT015 OVC040CB
      TEMPO 2621/2624 5SM TSRA OVC015CB
     FM270000 02010KT P6SM VCSH SCT007 BKN015
     FM270900 02015KT 4SM BR VCSH BKN007
     FM271400 01014KT P6SM SCT015 BKN080
     FM271700 01015KT P6SM SCT025=

USA.gov is the U.S. government's official web portal to all federal, state and local government web resources and services.